Maersk Bulan — 9V7693 — position and weather

sailwx.info

Track history (hours):
 
Tides and Currents Weather Stations Pressure Air Temp Water Temp Dewpoint Dewpoint Depression Visibility Wind Speed Wind Dir Waves Ship Positions

Maersk Bulan

Last reported at 2016-Dec-14 07:25 UTC. Time now 2017-Jan-17 21:13 UTC.
Position N 35°59' W 005°31'.
Warning: this ship's position is 34 days out of date.

Length 223 m; draft 11.4 m.

Type: Ship (hazmat cat A). MMSI: 563455000.

Date/timePositionNaut miles runAvg speedWind from/ knotsBaromVisibWave heightAir tempDewpointWater temp
2016-Dec-14 07:25N 35°59' W 005°31'7 7.6
2016-Dec-14 06:33N 36°02' W 005°24'6 6.3
2016-Dec-14 05:33N 36°08' W 005°26'0 0.0
2016-Dec-14 04:31N 36°08' W 005°26'0 0.0
2016-Dec-14 03:31N 36°08' W 005°26'0 0.0
2016-Dec-14 02:31N 36°08' W 005°26'0 0.0
2016-Dec-14 01:31N 36°08' W 005°26'0 0.0
2016-Dec-14 00:31N 36°08' W 005°26'0 0.0
2016-Dec-13 23:19N 36°08' W 005°26'0 0.0
2016-Dec-13 22:31N 36°08' W 005°26'0 0.0
2016-Dec-13 21:31N 36°08' W 005°26'0 0.0
2016-Dec-13 20:31N 36°08' W 005°26'0 0.0
2016-Dec-13 19:19N 36°08' W 005°26'0 0.0
2016-Dec-13 18:25N 36°08' W 005°26'0 0.0
2016-Dec-13 17:31N 36°08' W 005°26'4 0.4
2016-Dec-13 08:13N 36°06' W 005°22'6 8.7
2016-Dec-13 07:33N 36°05' W 005°15'14 2.2
2016-Dec-13 01:04N 36°13' W 005°01'1 0.8
2016-Dec-12 23:33N 36°12' W 005°01'1 0.4
2016-Dec-12 20:33N 36°11' W 005°00'11510.1
2016-Dec-12 09:14N 36°23' W 002°39'912.4
2016-Dec-12 08:29N 36°25' W 002°27'1211.9
2016-Dec-12 07:29N 36°26' W 002°13'  
2016-Dec-09 08:21N 36°35' E 013°54'911.3
2016-Dec-09 07:33N 36°33' E 014°04'1111.4
2016-Dec-09 06:33N 36°29' E 014°18'1111.3
2016-Dec-09 05:33N 36°26' E 014°31'1411.5
2016-Dec-09 04:19N 36°22' E 014°48'47610.3
2016-Dec-07 06:12N 37°49' E 024°34'711.4
2016-Dec-07 05:33N 37°56' E 024°38'  
Track history (hours):
 
Tides and Currents Weather Stations Pressure Air Temp Water Temp Dewpoint Dewpoint Depression Visibility Wind Speed Wind Dir Waves Ship Positions

Maersk Bulan

Last reported at 2016-Dec-14 07:25 UTC. Time now 2017-Jan-17 21:13 UTC.
Position N 35°59' W 005°31'.
Warning: this ship's position is 34 days out of date.

Length 223 m; draft 11.4 m.

Type: Ship (hazmat cat A). MMSI: 563455000.

Date/timePositionNaut miles runAvg speedWind from/ knotsBaromVisibWave heightAir tempDewpointWater temp
2016-Dec-14 07:25N 35°59' W 005°31'7 7.6
2016-Dec-14 06:33N 36°02' W 005°24'6 6.3
2016-Dec-14 05:33N 36°08' W 005°26'0 0.0
2016-Dec-14 04:31N 36°08' W 005°26'0 0.0
2016-Dec-14 03:31N 36°08' W 005°26'0 0.0
2016-Dec-14 02:31N 36°08' W 005°26'0 0.0
2016-Dec-14 01:31N 36°08' W 005°26'0 0.0
2016-Dec-14 00:31N 36°08' W 005°26'0 0.0
2016-Dec-13 23:19N 36°08' W 005°26'0 0.0
2016-Dec-13 22:31N 36°08' W 005°26'0 0.0
2016-Dec-13 21:31N 36°08' W 005°26'0 0.0
2016-Dec-13 20:31N 36°08' W 005°26'0 0.0
2016-Dec-13 19:19N 36°08' W 005°26'0 0.0
2016-Dec-13 18:25N 36°08' W 005°26'0 0.0
2016-Dec-13 17:31N 36°08' W 005°26'4 0.4
2016-Dec-13 08:13N 36°06' W 005°22'6 8.7
2016-Dec-13 07:33N 36°05' W 005°15'14 2.2
2016-Dec-13 01:04N 36°13' W 005°01'1 0.8
2016-Dec-12 23:33N 36°12' W 005°01'1 0.4
2016-Dec-12 20:33N 36°11' W 005°00'11510.1
2016-Dec-12 09:14N 36°23' W 002°39'912.4
2016-Dec-12 08:29N 36°25' W 002°27'1211.9
2016-Dec-12 07:29N 36°26' W 002°13'  
2016-Dec-09 08:21N 36°35' E 013°54'911.3
2016-Dec-09 07:33N 36°33' E 014°04'1111.4
2016-Dec-09 06:33N 36°29' E 014°18'1111.3
2016-Dec-09 05:33N 36°26' E 014°31'1411.5
2016-Dec-09 04:19N 36°22' E 014°48'47610.3
2016-Dec-07 06:12N 37°49' E 024°34'711.4
2016-Dec-07 05:33N 37°56' E 024°38'  

Dump ship's entire track history